• Join FlightAware (Why Join?)
  • Login
  • US Flag 
07:01PM EDT


 

Airport Tracker/Info


-or-


 

Live Flight TrackerFlight Track Log ✈ UAL4295 ✈ 30-Apr-2013 ✈ KRIC - KEWR

Flight Track Log - Related Links

Times and Time Zones

All times are in EDT time to prevent confusion due to time zone crossing. See the UAL4295 flight status page for this flight to view local times or setup timezone preferences in your user account.

Time Position Orientation Groundspeed Altitude Reporting Facility
EDT Latitude Longitude Course Direction KTS MPH feet Rate Location/Type
04:28PM 37.5833 -77.2667 38° Northeast 240 276 3,600  Level Potomac TRACON
04:28PM 37.6092 -77.2433 36° Northeast 243 280 4,700 2,220 Climbing Washington Center
04:29PM 37.6704 -77.1296 38° Northeast  Level FlightAware Approximate
04:29PM 37.6578 -77.1894 41° Northeast 261 300 7,200  Level Washington Center
04:30PM 37.7296 -77.0704 38° Northeast  Level FlightAware Approximate
04:30PM 37.7108 -77.1247 44° Northeast 261 300 9,000  Level Washington Center
04:31PM 37.7888 -77.0112 38° Northeast  Level FlightAware Approximate
04:31PM 37.7681 -77.0578 43° Northeast 267 307 10,500  Level Washington Center
04:32PM 37.8481 -76.9520 38° Northeast  Level FlightAware Approximate
04:32PM 37.8314 -76.9825 43° Northeast 280 322 11,800  Level Washington Center
04:33PM 37.9073 -76.8927 38° Northeast  Level FlightAware Approximate
04:33PM 37.8992 -76.9022 43° Northeast 307 353 13,300  Level Washington Center
04:34PM 37.9708 -76.8139 44° Northeast 332 382 14,800 1,440 Climbing Washington Center
04:35PM 38.0428 -76.7281 43° Northeast 350 403 16,300 1,080 Climbing Washington Center
04:36PM 38.1186 -76.6317 45° Northeast 350 403 17,000 300 Climbing Washington Center
04:37PM 38.1819 -76.5481 46° Northeast 343 395 17,000  Level Washington Center
04:38PM 38.2389 -76.4614 50° Northeast 323 372 17,000  Level Washington Center
04:39PM 38.2956 -76.4067 37° Northeast 316 364 17,000  Level Washington Center
04:40PM 38.3875 -76.3836 11° North 290 334 17,000  Level Washington Center
04:41PM 38.4750 -76.3686 North 295 339 17,000  Level Washington Center
04:42PM 38.5669 -76.3511 North 321 369 17,000  Level Washington Center
04:43PM 38.6631 -76.3333 North 338 389 17,000  Level Washington Center
04:44PM 38.7611 -76.3131 North 343 395 17,000  Level Washington Center
04:45PM 38.8569 -76.2953 North 349 402 17,100  Climbing Washington Center
04:46PM 38.9511 -76.2775 North 349 402 17,100  Level Washington Center
04:47PM 39.0492 -76.2597 North 349 402 17,100 -60 Level Washington Center
04:48PM 39.1450 -76.2339 12° North 349 402 17,000 -60 Descending Washington Center
04:49PM 39.2353 -76.1356 40° Northeast 351 404 17,000  Level Washington Center
04:50PM 39.3128 -76.0450 42° Northeast 362 417 17,000  Level Washington Center
04:51PM 39.3942 -75.9489 42° Northeast 376 433 17,000  Level Washington Center
04:52PM 39.4717 -75.8550 43° Northeast 381 438 17,000  Level Washington Center
04:53PM 39.5508 -75.7639 42° Northeast 381 438 17,000  Level Washington Center
04:54PM 39.6281 -75.6697 43° Northeast 376 433 17,000  Level Washington Center
04:55PM 39.7031 -75.5781 43° Northeast 376 433 17,000  Level Washington Center
04:56PM 39.7822 -75.4861 42° Northeast 371 427 17,000  Level Washington Center
04:57PM 39.8572 -75.3942 43° Northeast 371 427 17,000 -420 Level Washington Center
04:58PM 39.9342 -75.3019 43° Northeast 371 427 16,200 -1,260 Descending Washington Center
04:59PM 40.0108 -75.2069 43° Northeast 371 427 14,500 -1,980 Descending Washington Center
05:01PM 40.1333 -75.0667 41° Northeast 345 397 11,100 -1,800 Descending New York TRACON
05:02PM 40.1833 -75.0000 46° Northeast 293 337 10,200 -1,380 Descending New York TRACON
05:03PM 40.2333 -74.9333 45° Northeast 280 322 8,500 -1,140 Descending New York TRACON
05:04PM 40.2833 -74.8500 52° Northeast 273 314 8,000 -720 Descending New York TRACON
05:05PM 40.3333 -74.7833 45° Northeast 263 303 7,100 -1,500 Descending New York TRACON
05:06PM 40.3833 -74.7167 45° Northeast 256 295 5,000 -1,920 Descending New York TRACON
05:07PM 40.4500 -74.6833 21° North 265 305 3,300 -960 Descending New York TRACON
05:08PM 40.5167 -74.6667 11° North 249 287 3,100 -120 Descending New York TRACON
05:09PM 40.5667 -74.6000 45° Northeast 251 289 3,100  Level New York TRACON
05:10PM 40.6167 -74.5333 45° Northeast 246 283 3,100  Level New York TRACON
05:11PM 40.6500 -74.4667 57° Northeast 247 284 3,100 -60 Level New York TRACON
05:12PM 40.7000 -74.4000 45° Northeast 237 273 3,000 -120 Descending New York TRACON